Time;durP1;ratioP1;P1;durP2;ratioP2;P2;SDS_P1;SDS_P2;PMS_P1;PMS_P2;Temp;Humidity;BMP_temperature;BMP_pressure;BME280_temperature;BME280_humidity;BME280_pressure;Samples;Min_cycle;Max_cycle;Signal;HPM_P1;HPM_P2
2023/07/18 00:00:43;;;;;;;4.32;1.58;;;;;;;14.85;75.78;97832.91;5065760;28;20461;-55
2023/07/18 00:03:10;;;;;;;2.22;1.08;;;;;;;14.49;77.83;97837.09;5065610;28;20110;-53
2023/07/18 00:05:37;;;;;;;2.08;1.15;;;;;;;14.22;80.01;97831.81;5066686;28;20068;-52
2023/07/18 00:08:04;;;;;;;4.45;1.58;;;;;;;14.02;80.73;97836.91;5065633;28;20051;-51
2023/07/18 00:10:30;;;;;;;3.83;1.20;;;;;;;13.82;81.43;97837.56;5065524;28;20044;-53
2023/07/18 00:12:57;;;;;;;4.15;1.75;;;;;;;13.92;80.71;97847.69;5066021;28;20036;-53
2023/07/18 00:15:28;;;;;;;3.33;1.20;;;;;;;14.08;79.87;97839.63;5065456;28;20109;-54
2023/07/18 00:17:55;;;;;;;3.70;1.35;;;;;;;14.26;79.24;97835.66;5064870;28;20570;-53
2023/07/18 00:20:23;;;;;;;3.50;1.40;;;;;;;14.15;78.53;97837.47;5065991;28;20040;-55
2023/07/18 00:22:50;;;;;;;3.58;1.30;;;;;;;13.91;82.40;97844.19;5064570;28;20052;-56
2023/07/18 00:25:19;;;;;;;4.38;1.40;;;;;;;13.98;80.93;97838.50;5065084;28;20044;-54
2023/07/18 00:27:49;;;;;;;5.75;1.35;;;;;;;14.12;80.11;97838.84;5064801;28;20032;-54
2023/07/18 00:30:17;;;;;;;3.08;1.30;;;;;;;14.05;80.72;97843.72;5063916;28;20040;-55
2023/07/18 00:32:44;;;;;;;3.70;1.92;;;;;;;13.91;81.55;97846.06;5063736;28;20116;-53
2023/07/18 00:35:12;;;;;;;4.55;1.30;;;;;;;13.89;81.57;97840.06;5064840;28;20094;-55
2023/07/18 00:37:39;;;;;;;3.00;1.10;;;;;;;13.81;81.86;97835.94;5064994;28;20642;-51
2023/07/18 00:40:10;;;;;;;3.28;1.10;;;;;;;13.83;81.04;97838.38;5064723;28;20075;-53
2023/07/18 00:42:38;;;;;;;3.42;1.10;;;;;;;13.94;80.98;97839.28;5063648;28;20449;-50
2023/07/18 00:45:06;;;;;;;4.78;1.13;;;;;;;13.71;82.05;97836.66;5064235;28;20119;-51
2023/07/18 00:47:40;;;;;;;3.90;1.20;;;;;;;13.51;82.82;97838.16;5062861;28;20115;-50
2023/07/18 00:50:09;;;;;;;3.72;1.40;;;;;;;13.67;81.55;97830.09;5063933;28;21853;-53
2023/07/18 00:52:40;;;;;;;4.65;1.40;;;;;;;13.87;80.26;97831.34;5063429;28;20044;-54
2023/07/18 00:55:10;;;;;;;5.13;1.33;;;;;;;14.07;80.07;97838.81;5063946;28;20055;-56
2023/07/18 00:57:41;;;;;;;3.45;1.33;;;;;;;13.94;80.36;97828.38;5065491;28;20043;-55
2023/07/18 01:00:10;;;;;;;;;;;;;;;13.86;79.63;97832.44;5065391;28;20072;-56
2023/07/18 01:02:40;;;;;;;3.90;1.20;;;;;;;13.77;81.13;97829.38;5063073;28;19920;-53
2023/07/18 01:05:08;;;;;;;2.70;1.20;;;;;;;13.82;80.82;97828.59;5064373;28;20134;-54
2023/07/18 01:07:37;;;;;;;3.58;1.40;;;;;;;13.70;81.24;97836.94;5064394;28;20438;-56
2023/07/18 01:10:26;;;;;;;4.30;1.27;;;;;;;13.83;80.87;97831.06;5062243;28;20115;-55
2023/07/18 01:12:54;;;;;;;3.85;1.70;;;;;;;13.89;80.09;97830.00;5063826;28;20045;-53
2023/07/18 01:15:24;;;;;;;5.28;1.15;;;;;;;13.83;80.84;97825.63;5063871;28;20037;-52
2023/07/18 01:17:50;;;;;;;5.43;1.55;;;;;;;13.70;80.99;97823.31;5063863;28;20496;-55
2023/07/18 01:20:23;;;;;;;3.70;1.42;;;;;;;13.56;81.55;97821.06;5063487;28;20124;-53
2023/07/18 01:22:55;;;;;;;6.20;1.98;;;;;;;13.54;82.00;97817.78;5060105;28;20040;-53
2023/07/18 01:25:22;;;;;;;3.33;1.00;;;;;;;13.61;81.16;97814.84;5056029;28;20044;-52
2023/07/18 01:27:52;;;;;;;3.95;1.30;;;;;;;13.60;81.01;97813.22;5063296;28;20062;-54
2023/07/18 01:30:24;;;;;;;4.20;1.40;;;;;;;13.68;80.61;97806.44;5062312;28;20407;-52
2023/07/18 01:32:52;;;;;;;5.50;1.25;;;;;;;13.67;81.02;97807.53;5061504;28;20591;-52
2023/07/18 01:35:24;;;;;;;4.85;1.20;;;;;;;13.72;80.53;97813.00;5063222;28;20105;-52
2023/07/18 01:37:52;;;;;;;2.67;1.10;;;;;;;13.80;79.74;97807.06;5061619;28;20044;-51
2023/07/18 01:40:21;;;;;;;3.30;1.10;;;;;;;13.81;79.75;97808.72;5061919;28;20051;-52
2023/07/18 01:42:51;;;;;;;2.33;1.10;;;;;;;13.79;79.63;97811.69;5062657;28;20468;-52
2023/07/18 01:45:22;;;;;;;3.80;1.53;;;;;;;13.88;79.05;97806.59;5060461;28;20040;-52
2023/07/18 01:47:49;;;;;;;4.55;1.23;;;;;;;13.69;79.82;97810.81;5062234;28;20310;-51
2023/07/18 01:50:18;;;;;;;3.22;1.48;;;;;;;13.48;81.51;97802.47;5062099;28;20063;-52
2023/07/18 01:52:46;;;;;;;4.95;1.50;;;;;;;13.22;83.30;97804.97;5063261;28;20043;-51
2023/07/18 01:55:13;;;;;;;5.55;1.38;;;;;;;13.22;83.49;97805.81;5062622;28;20052;-53
2023/07/18 01:57:40;;;;;;;2.88;1.10;;;;;;;13.29;83.20;97805.59;5061940;28;20029;-54
2023/07/18 02:00:11;;;;;;;3.70;1.30;;;;;;;13.23;83.47;97790.31;5061822;28;20733;-54
2023/07/18 02:02:41;;;;;;;3.72;1.35;;;;;;;13.25;83.74;97796.31;5061986;28;20082;-55
2023/07/18 02:05:09;;;;;;;3.90;1.25;;;;;;;13.33;82.77;97795.81;5061322;28;20048;-56
2023/07/18 02:07:36;;;;;;;2.70;1.25;;;;;;;13.52;81.42;97798.16;5061204;28;20538;-56
2023/07/18 02:10:03;;;;;;;3.28;1.27;;;;;;;13.51;81.57;97796.53;5060473;28;20730;-55
2023/07/18 02:12:30;;;;;;;4.65;1.17;;;;;;;13.27;83.87;97794.16;5061230;28;20118;-54
2023/07/18 02:14:57;;;;;;;5.25;1.55;;;;;;;13.19;84.15;97800.88;5060939;28;20051;-55
2023/07/18 02:17:24;;;;;;;2.88;1.30;;;;;;;13.19;84.45;97789.19;5063326;28;20078;-56
2023/07/18 02:19:50;;;;;;;2.92;1.20;;;;;;;12.92;86.48;97799.00;5061580;28;20733;-55
2023/07/18 02:22:18;;;;;;;4.53;1.17;;;;;;;12.84;87.30;97800.28;5063049;28;20055;-55
2023/07/18 02:24:45;;;;;;;2.92;1.50;;;;;;;12.88;86.49;97796.00;5063656;28;20040;-54
2023/07/18 02:27:12;;;;;;;2.95;1.20;;;;;;;12.80;87.07;97801.03;5064996;28;20140;-54
2023/07/18 02:29:40;;;;;;;3.17;1.35;;;;;;;12.79;87.10;97796.69;5062328;28;20181;-53
2023/07/18 02:32:07;;;;;;;3.63;1.40;;;;;;;12.75;86.95;97799.09;5062013;28;20041;-53
2023/07/18 02:34:38;;;;;;;3.65;1.52;;;;;;;12.69;87.52;97800.13;5061362;28;20048;-53
2023/07/18 02:37:05;;;;;;;12.98;1.77;;;;;;;12.65;87.44;97797.09;5062868;28;20045;-54
2023/07/18 02:39:34;;;;;;;4.22;1.30;;;;;;;12.59;87.90;97795.38;5062426;28;20555;-51
2023/07/18 02:42:02;;;;;;;4.93;1.40;;;;;;;12.59;88.03;97798.09;5062285;28;20040;-52
2023/07/18 02:44:29;;;;;;;3.47;1.20;;;;;;;12.59;88.93;97801.66;5060155;28;20037;-55
2023/07/18 02:46:55;;;;;;;7.03;1.67;;;;;;;12.63;87.92;97791.09;5062000;28;20059;-51
2023/07/18 02:49:22;;;;;;;3.97;1.23;;;;;;;12.56;88.74;97795.88;5062711;28;20115;-52
2023/07/18 02:51:49;;;;;;;4.38;1.40;;;;;;;12.57;88.73;97798.34;5061797;28;20123;-51
2023/07/18 02:54:15;;;;;;;2.88;1.17;;;;;;;12.60;88.19;97803.28;5062041;28;20055;-50
2023/07/18 02:56:42;;;;;;;2.28;1.17;;;;;;;12.59;88.19;97806.25;5059435;28;20128;-52
2023/07/18 02:59:08;;;;;;;4.45;1.42;;;;;;;12.63;88.00;97804.66;5061542;28;20043;-53
2023/07/18 03:01:35;;;;;;;3.95;1.55;;;;;;;12.73;87.01;97802.09;5059849;28;20036;-52
2023/07/18 03:04:01;;;;;;;3.80;1.40;;;;;;;12.58;88.11;97805.44;5061570;28;20036;-53
2023/07/18 03:06:28;;;;;;;3.33;1.30;;;;;;;12.34;89.73;97796.72;5062505;28;20072;-54
2023/07/18 03:08:55;;;;;;;3.90;1.27;;;;;;;12.27;90.51;97807.78;5059739;28;20039;-55
2023/07/18 03:11:22;;;;;;;3.35;1.02;;;;;;;12.43;89.43;97803.38;5072390;28;20422;-54
2023/07/18 03:13:49;;;;;;;4.40;1.70;;;;;;;12.49;88.74;97802.34;5061044;28;20040;-55
2023/07/18 03:16:16;;;;;;;4.03;1.45;;;;;;;12.47;89.14;97803.69;5061313;28;20111;-55
2023/07/18 03:18:42;;;;;;;5.13;1.50;;;;;;;12.37;89.64;97807.09;5065462;28;20060;-54
2023/07/18 03:21:09;;;;;;;5.47;1.75;;;;;;;12.36;89.06;97806.25;5066429;28;20047;-53
2023/07/18 03:23:35;;;;;;;5.07;1.48;;;;;;;12.39;89.20;97802.25;5062863;28;20705;-53
2023/07/18 03:26:02;;;;;;;3.40;1.40;;;;;;;12.36;89.17;97808.19;5061274;28;20036;-56
2023/07/18 03:28:28;;;;;;;2.58;1.30;;;;;;;12.46;88.51;97802.84;5066472;28;20725;-58
2023/07/18 03:30:55;;;;;;;3.25;1.33;;;;;;;12.40;89.21;97808.47;5065786;28;20039;-56
2023/07/18 03:33:21;;;;;;;6.90;1.42;;;;;;;12.41;89.37;97799.25;5064690;28;20056;-59
2023/07/18 03:35:48;;;;;;;5.13;1.65;;;;;;;12.35;89.42;97792.97;5064949;28;20594;-58
2023/07/18 03:38:14;;;;;;;3.40;1.65;;;;;;;12.29;90.48;97796.66;5063325;28;20041;-59
2023/07/18 03:40:43;;;;;;;3.53;1.77;;;;;;;12.31;90.02;97795.34;5062414;28;20063;-59
2023/07/18 03:43:10;;;;;;;4.15;1.60;;;;;;;12.47;88.91;97795.53;5062628;28;20051;-58
2023/07/18 03:45:36;;;;;;;6.18;1.38;;;;;;;12.36;90.38;97800.03;5063510;28;20755;-56
2023/07/18 03:48:03;;;;;;;4.57;1.35;;;;;;;11.95;94.01;97798.38;5064712;28;20044;-58
2023/07/18 03:50:30;;;;;;;5.60;2.00;;;;;;;11.79;94.15;97791.13;5064803;28;20048;-59
2023/07/18 03:52:56;;;;;;;4.97;1.75;;;;;;;11.91;93.30;97786.38;5063584;28;20102;-58
2023/07/18 03:55:23;;;;;;;5.40;1.98;;;;;;;12.10;91.93;97797.78;5061009;28;20736;-58
2023/07/18 03:57:49;;;;;;;3.17;1.27;;;;;;;11.91;93.10;97791.81;5063292;28;20139;-56
2023/07/18 04:00:17;;;;;;;3.28;1.40;;;;;;;11.94;93.17;97785.09;5064560;28;20040;-58
2023/07/18 04:02:46;;;;;;;4.07;1.42;;;;;;;11.94;93.27;97777.75;5062764;28;20041;-58
2023/07/18 04:05:14;;;;;;;4.28;1.45;;;;;;;11.90;93.36;97783.94;5063974;28;20071;-58
2023/07/18 04:07:41;;;;;;;3.05;1.50;;;;;;;11.95;93.63;97778.59;5063534;28;20032;-56
2023/07/18 04:10:11;;;;;;;6.90;1.92;;;;;;;12.03;92.72;97778.16;5065136;28;20053;-58
2023/07/18 04:12:41;;;;;;;6.68;1.83;;;;;;;12.03;92.86;97771.88;5063036;28;20671;-58
2023/07/18 04:15:09;;;;;;;4.25;1.30;;;;;;;12.11;92.62;97782.34;5062720;28;20051;-58
2023/07/18 04:17:36;;;;;;;3.58;1.25;;;;;;;12.08;91.93;97770.09;5063256;28;20041;-56
2023/07/18 04:20:05;;;;;;;3.13;1.50;;;;;;;12.08;92.32;97774.69;5064166;28;20098;-58
2023/07/18 04:22:31;;;;;;;4.50;1.58;;;;;;;12.09;91.98;97770.94;5064321;28;20043;-57
2023/07/18 04:24:58;;;;;;;7.10;2.05;;;;;;;12.01;92.71;97774.06;5061031;28;20159;-55
2023/07/18 04:27:27;;;;;;;6.93;1.75;;;;;;;12.09;92.13;97770.94;5063286;28;20056;-58
2023/07/18 04:29:53;;;;;;;6.65;1.70;;;;;;;12.16;92.12;97766.13;5063376;28;20044;-57
2023/07/18 04:32:20;;;;;;;6.13;1.92;;;;;;;12.29;91.36;97770.34;5063298;28;20055;-59
2023/07/18 04:34:48;;;;;;;6.68;1.27;;;;;;;12.34;90.89;97770.41;5062653;28;20511;-58
2023/07/18 04:37:15;;;;;;;7.40;1.50;;;;;;;12.52;89.94;97773.84;5062710;28;20061;-58
2023/07/18 04:39:41;;;;;;;2.70;1.33;;;;;;;12.62;89.14;97781.31;5064329;28;20051;-59
2023/07/18 04:42:08;;;;;;;5.00;2.00;;;;;;;12.74;89.05;97775.72;5065109;28;20486;-56
2023/07/18 04:44:34;;;;;;;5.43;1.52;;;;;;;12.80;88.36;97777.44;5062001;28;20048;-54
2023/07/18 04:47:01;;;;;;;4.05;1.30;;;;;;;12.80;88.43;97773.88;5062347;28;20443;-54
2023/07/18 04:49:29;;;;;;;3.40;1.35;;;;;;;12.84;88.21;97764.97;5062904;28;20116;-52
2023/07/18 04:51:55;;;;;;;3.10;1.40;;;;;;;12.88;88.12;97766.09;5061297;28;20041;-54
2023/07/18 04:54:22;;;;;;;5.35;1.63;;;;;;;12.88;88.16;97766.09;5062037;28;20575;-55
2023/07/18 04:56:48;;;;;;;9.27;1.67;;;;;;;12.86;87.76;97770.13;5061767;28;20299;-56
2023/07/18 04:59:15;;;;;;;4.20;1.50;;;;;;;12.87;87.86;97764.44;5061617;28;20044;-56
2023/07/18 05:01:41;;;;;;;4.93;1.65;;;;;;;12.92;87.99;97765.56;5062222;28;20044;-56
2023/07/18 05:04:08;;;;;;;5.75;1.88;;;;;;;13.01;87.82;97758.56;5062720;28;20075;-55
2023/07/18 05:06:35;;;;;;;4.30;1.60;;;;;;;13.19;87.51;97753.84;5062115;28;20032;-56
2023/07/18 05:09:01;;;;;;;4.50;1.65;;;;;;;13.36;86.83;97759.13;5060580;28;20055;-56
2023/07/18 05:11:28;;;;;;;2.88;1.38;;;;;;;13.43;87.56;97754.28;5062931;28;20104;-55
2023/07/18 05:13:56;;;;;;;5.70;1.73;;;;;;;13.59;86.43;97760.69;5061446;28;20072;-56
2023/07/18 05:16:22;;;;;;;5.55;1.67;;;;;;;13.65;85.55;97759.63;5060720;28;20131;-56
2023/07/18 05:18:49;;;;;;;3.53;1.65;;;;;;;13.80;85.84;97749.94;5061757;28;20055;-56
2023/07/18 05:21:15;;;;;;;3.45;1.30;;;;;;;13.94;85.83;97750.28;5061620;28;20428;-55
2023/07/18 05:23:42;;;;;;;5.07;1.52;;;;;;;14.02;84.79;97740.78;5061429;28;20044;-56
2023/07/18 05:26:10;;;;;;;4.80;1.55;;;;;;;14.12;84.38;97740.81;5061798;28;20040;-55
2023/07/18 05:28:36;;;;;;;3.65;1.40;;;;;;;14.22;85.08;97737.31;5059992;28;20127;-53
2023/07/18 05:31:08;;;;;;;4.53;2.17;;;;;;;14.29;84.71;97743.34;5063842;28;20059;-54
2023/07/18 05:33:35;;;;;;;3.53;1.50;;;;;;;14.43;83.54;97742.81;5062426;28;20123;-55
2023/07/18 05:36:01;;;;;;;4.38;1.40;;;;;;;14.58;83.06;97739.31;5062379;28;20541;-55
2023/07/18 05:38:28;;;;;;;4.63;1.42;;;;;;;14.78;82.28;97738.56;5061937;28;20049;-55
2023/07/18 05:40:54;;;;;;;7.95;1.90;;;;;;;14.95;82.27;97745.69;5060527;28;20076;-56
2023/07/18 05:43:21;;;;;;;5.47;1.60;;;;;;;15.13;80.99;97747.06;5061986;28;20454;-56
2023/07/18 05:45:49;;;;;;;3.92;1.23;;;;;;;15.23;80.74;97745.41;5061909;28;20052;-56
2023/07/18 05:48:15;;;;;;;4.70;1.40;;;;;;;15.42;78.74;97746.50;5061056;28;20037;-55
2023/07/18 05:50:42;;;;;;;4.07;1.50;;;;;;;15.59;76.89;97743.47;5061951;28;20134;-56
2023/07/18 05:53:08;;;;;;;4.97;1.30;;;;;;;15.73;74.06;97731.97;5063267;28;20047;-53
2023/07/18 05:55:35;;;;;;;4.43;1.42;;;;;;;15.91;69.96;97735.19;5061263;28;20048;-56
2023/07/18 05:58:01;;;;;;;5.15;1.30;;;;;;;16.08;67.54;97737.63;5060870;28;20036;-49
2023/07/18 06:00:28;;;;;;;5.18;1.50;;;;;;;16.23;66.48;97729.38;5061553;28;20044;-52
2023/07/18 06:02:55;;;;;;;2.85;1.10;;;;;;;16.38;66.46;97725.75;5060473;28;20045;-51
2023/07/18 06:05:25;;;;;;;5.03;0.90;;;;;;;16.55;65.42;97719.06;5059861;28;20047;-51
2023/07/18 06:07:52;;;;;;;3.05;1.27;;;;;;;16.65;65.01;97723.66;5064832;28;20396;-49
2023/07/18 06:10:18;;;;;;;3.13;1.15;;;;;;;16.81;64.83;97720.84;5060766;28;20051;-52
2023/07/18 06:12:45;;;;;;;5.63;1.30;;;;;;;17.07;64.65;97717.94;5060557;28;20629;-52
2023/07/18 06:15:11;;;;;;;4.95;1.25;;;;;;;17.23;63.98;97716.72;5061080;28;20072;-52
2023/07/18 06:17:38;;;;;;;3.92;1.40;;;;;;;17.31;62.90;97714.47;5061181;28;20048;-53
2023/07/18 06:20:11;;;;;;;3.28;1.42;;;;;;;17.33;63.39;97709.50;5063648;28;20044;-50
2023/07/18 06:22:38;;;;;;;3.38;0.88;;;;;;;17.37;63.56;97711.38;5060691;28;20040;-51
2023/07/18 06:25:06;;;;;;;4.60;1.30;;;;;;;17.51;63.83;97707.97;5061304;28;20044;-51
2023/07/18 06:27:33;;;;;;;5.78;1.40;;;;;;;17.72;63.47;97713.25;5061067;28;20078;-51
2023/07/18 06:30:00;;;;;;;3.28;1.23;;;;;;;17.78;61.40;97712.06;5061786;28;20039;-52
2023/07/18 06:32:28;;;;;;;4.90;1.15;;;;;;;17.93;61.59;97708.31;5060539;28;20051;-52
2023/07/18 06:34:55;;;;;;;2.92;1.00;;;;;;;18.07;61.44;97706.50;5059736;28;20076;-52
2023/07/18 06:37:26;;;;;;;4.80;1.35;;;;;;;18.19;60.54;97710.78;5059681;28;20048;-52
2023/07/18 06:39:53;;;;;;;4.18;1.20;;;;;;;18.20;60.75;97702.25;5061171;28;20041;-51
2023/07/18 06:42:20;;;;;;;5.20;1.52;;;;;;;18.32;60.23;97701.03;5060722;28;20056;-49
2023/07/18 06:44:47;;;;;;;5.43;1.70;;;;;;;18.37;59.29;97702.88;5060629;28;20058;-51
2023/07/18 06:47:14;;;;;;;5.28;1.35;;;;;;;18.57;59.87;97699.03;5059794;28;20040;-49
2023/07/18 06:49:41;;;;;;;10.48;1.42;;;;;;;18.60;58.72;97709.41;5060396;28;20473;-52
2023/07/18 06:52:07;;;;;;;7.22;1.48;;;;;;;18.55;57.93;97701.25;5060464;28;20071;-49
2023/07/18 06:54:34;;;;;;;13.52;1.52;;;;;;;18.68;58.83;97689.53;5060364;28;20704;-48
2023/07/18 06:57:01;;;;;;;15.80;2.08;;;;;;;18.74;59.55;97687.53;5060643;28;20143;-48
2023/07/18 06:59:27;;;;;;;8.80;1.60;;;;;;;18.87;57.96;97691.44;5061679;28;20053;-49
2023/07/18 07:01:54;;;;;;;6.57;2.00;;;;;;;18.84;57.29;97694.78;5059762;28;20044;-58
2023/07/18 07:04:21;;;;;;;12.95;2.72;;;;;;;19.03;56.87;97693.94;5058557;28;20542;-56
2023/07/18 07:06:47;;;;;;;5.90;1.38;;;;;;;19.13;56.98;97687.50;5059446;28;20036;-60
2023/07/18 07:09:14;;;;;;;8.55;1.50;;;;;;;19.14;56.64;97687.19;5059347;28;20040;-60
2023/07/18 07:11:41;;;;;;;6.78;1.90;;;;;;;19.31;57.46;97683.88;5060484;28;20047;-56
2023/07/18 07:14:08;;;;;;;6.85;1.45;;;;;;;19.43;56.65;97686.16;5059668;28;20807;-59
2023/07/18 07:16:35;;;;;;;5.13;1.63;;;;;;;19.41;55.65;97684.78;5057756;28;20047;-58
2023/07/18 07:19:02;;;;;;;9.68;1.40;;;;;;;19.43;55.56;97677.09;5059906;28;20045;-56
2023/07/18 07:21:29;;;;;;;7.65;2.15;;;;;;;19.45;55.01;97672.09;5060439;28;20387;-55
2023/07/18 07:23:55;;;;;;;6.20;1.20;;;;;;;19.67;55.60;97678.81;5055833;28;20558;-59
2023/07/18 07:26:24;;;;;;;7.03;1.30;;;;;;;19.77;54.37;97678.63;5053604;28;20045;-59
2023/07/18 07:28:51;;;;;;;4.68;1.40;;;;;;;19.81;54.51;97671.41;5054152;28;20044;-57
2023/07/18 07:31:17;;;;;;;6.07;1.63;;;;;;;19.91;54.96;97672.31;5060273;28;20055;-58
2023/07/18 07:33:44;;;;;;;5.63;1.30;;;;;;;20.01;55.35;97661.13;5059610;28;20045;-58
2023/07/18 07:36:11;;;;;;;7.95;1.70;;;;;;;20.04;54.32;97655.03;5059299;28;20047;-56
2023/07/18 07:38:38;;;;;;;7.05;1.70;;;;;;;20.07;54.48;97662.66;5058660;28;20361;-55
2023/07/18 07:41:05;;;;;;;3.97;1.52;;;;;;;20.11;55.53;97655.44;5060618;28;20060;-57
2023/07/18 07:43:32;;;;;;;4.50;1.10;;;;;;;20.21;53.15;97654.41;5060758;28;20561;-56
2023/07/18 07:45:59;;;;;;;5.40;1.50;;;;;;;20.39;53.65;97644.34;5059048;28;20053;-56
2023/07/18 07:48:26;;;;;;;4.35;1.48;;;;;;;20.48;52.86;97649.94;5062054;28;20078;-53
2023/07/18 07:50:53;;;;;;;4.75;1.50;;;;;;;20.51;52.58;97648.50;5059506;28;20111;-53
2023/07/18 07:53:19;;;;;;;6.88;1.67;;;;;;;20.54;53.21;97636.91;5060592;28;20107;-56
2023/07/18 07:55:46;;;;;;;7.55;1.70;;;;;;;20.60;53.26;97638.38;5061420;28;20062;-55
2023/07/18 07:58:12;;;;;;;3.60;1.40;;;;;;;20.70;52.61;97631.84;5058912;28;20048;-56
2023/07/18 08:00:39;;;;;;;7.50;1.88;;;;;;;20.71;52.55;97627.16;5062441;28;20049;-54
2023/07/18 08:03:05;;;;;;;5.68;1.63;;;;;;;20.70;52.57;97623.56;5063846;28;20045;-57
2023/07/18 08:05:32;;;;;;;4.97;1.55;;;;;;;20.76;52.45;97619.59;5060866;28;20070;-55
2023/07/18 08:08:00;;;;;;;5.78;1.70;;;;;;;21.00;52.29;97634.97;5043739;28;20047;-56
2023/07/18 08:10:27;;;;;;;5.28;1.70;;;;;;;20.99;51.98;97627.03;5064682;28;20068;-57
2023/07/18 08:12:55;;;;;;;5.20;1.80;;;;;;;20.98;51.51;97626.22;5062371;28;20052;-57
2023/07/18 08:15:22;;;;;;;6.68;2.15;;;;;;;21.13;51.74;97618.69;5063845;28;20120;-59
2023/07/18 08:17:49;;;;;;;6.90;1.70;;;;;;;21.25;51.09;97620.84;5060008;28;20041;-56
2023/07/18 08:20:16;;;;;;;8.52;1.70;;;;;;;21.31;52.01;97622.34;5062869;28;20069;-58
2023/07/18 08:22:43;;;;;;;5.30;1.58;;;;;;;21.36;50.74;97615.88;5062294;28;20032;-58
2023/07/18 08:25:09;;;;;;;7.07;1.92;;;;;;;21.52;50.76;97610.78;5062539;28;20052;-57
2023/07/18 08:27:36;;;;;;;5.63;2.10;;;;;;;21.49;50.14;97605.88;5064360;28;20051;-58
2023/07/18 08:30:03;;;;;;;4.95;1.63;;;;;;;21.67;49.48;97610.31;5063445;28;20044;-57
2023/07/18 08:32:30;;;;;;;3.67;1.77;;;;;;;21.69;49.19;97602.56;5062767;28;20052;-58
2023/07/18 08:34:56;;;;;;;6.03;1.80;;;;;;;21.87;48.06;97602.63;5062982;28;20067;-58
2023/07/18 08:37:23;;;;;;;3.90;1.65;;;;;;;21.94;48.02;97607.66;5064062;28;20127;-58
2023/07/18 08:39:49;;;;;;;5.25;1.63;;;;;;;21.99;48.03;97602.00;5062122;28;20036;-58
2023/07/18 08:42:21;;;;;;;7.10;1.60;;;;;;;22.15;48.45;97599.56;5064431;28;20049;-59
2023/07/18 08:44:49;;;;;;;8.68;2.28;;;;;;;22.08;47.12;97604.78;5062439;28;20040;-59
2023/07/18 08:47:16;;;;;;;3.80;1.42;;;;;;;22.10;47.42;97602.50;5063216;28;20044;-56
2023/07/18 08:49:43;;;;;;;8.73;2.38;;;;;;;22.24;47.09;97596.00;5063483;28;20704;-60
2023/07/18 08:52:10;;;;;;;3.17;1.45;;;;;;;22.21;46.34;97595.53;5062799;28;20698;-57
2023/07/18 08:54:36;;;;;;;5.80;2.03;;;;;;;22.30;46.40;97589.22;5062573;28;20123;-61
2023/07/18 08:57:03;;;;;;;7.97;1.80;;;;;;;22.43;46.16;97587.41;5060789;28;20508;-56
2023/07/18 08:59:30;;;;;;;6.43;1.60;;;;;;;22.43;45.84;97573.63;5062964;28;20036;-53
2023/07/18 09:01:57;;;;;;;6.65;1.77;;;;;;;22.55;46.59;97578.53;5063180;28;20493;-51
2023/07/18 09:04:24;;;;;;;3.35;1.40;;;;;;;22.71;45.91;97581.59;5062909;28;20523;-52
2023/07/18 09:06:59;;;;;;;4.65;1.70;;;;;;;22.83;45.85;97584.47;5062661;28;20040;-56
2023/07/18 09:09:26;;;;;;;3.80;2.03;;;;;;;22.88;45.05;97585.44;5060490;28;20037;-54
2023/07/18 09:12:00;;;;;;;4.60;1.75;;;;;;;22.88;45.17;97574.41;5063110;28;20044;-56
2023/07/18 09:14:32;;;;;;;5.20;1.73;;;;;;;22.88;44.37;97575.19;5061209;28;20048;-57
2023/07/18 09:17:04;;;;;;;4.53;2.03;;;;;;;22.80;45.23;97574.09;5062440;28;20055;-56
2023/07/18 09:19:46;;;;;;;4.30;1.60;;;;;;;22.86;44.23;97570.00;5060464;28;20052;-56
2023/07/18 09:22:14;;;;;;;4.20;1.92;;;;;;;22.87;45.02;97570.81;5062102;28;20518;-53
2023/07/18 09:24:42;;;;;;;7.32;1.88;;;;;;;22.90;44.46;97561.88;5046688;28;20055;-61
2023/07/18 09:27:19;;;;;;;7.63;1.80;;;;;;;22.97;44.62;97561.38;5052427;28;20055;-60
2023/07/18 09:29:48;;;;;;;5.53;1.60;;;;;;;23.23;44.82;97560.47;5062155;28;20040;-56
2023/07/18 09:32:19;;;;;;;8.13;1.67;;;;;;;23.42;43.85;97560.09;5061274;28;20040;-55
2023/07/18 09:34:55;;;;;;;;;;;;;;;23.59;43.89;97559.19;5061597;28;20058;-58
2023/07/18 09:37:23;;;;;;;5.90;1.85;;;;;;;23.71;43.12;97554.91;5062328;28;19959;-55
2023/07/18 09:39:51;;;;;;;4.32;1.70;;;;;;;23.83;43.13;97554.97;5061744;28;20127;-56
2023/07/18 09:42:19;;;;;;;5.47;2.00;;;;;;;23.92;42.26;97559.63;5059908;28;20048;-55
2023/07/18 09:44:50;;;;;;;3.38;1.60;;;;;;;24.17;42.32;97566.13;5061258;28;20055;-57
2023/07/18 09:47:20;;;;;;;5.38;1.88;;;;;;;24.28;41.53;97572.91;5063511;28;20064;-58
2023/07/18 09:49:47;;;;;;;3.80;1.60;;;;;;;24.27;42.25;97568.53;5063169;28;20282;-57
2023/07/18 09:52:15;;;;;;;5.07;1.45;;;;;;;24.43;41.71;97581.72;5061539;28;20044;-55
2023/07/18 09:54:43;;;;;;;4.40;1.80;;;;;;;24.63;41.86;97602.22;5060236;28;20055;-57
2023/07/18 09:57:11;;;;;;;4.88;1.65;;;;;;;24.73;41.21;97630.63;5061362;28;20052;-56
2023/07/18 09:59:39;;;;;;;6.25;2.00;;;;;;;24.98;39.93;97641.84;5063702;28;20032;-56
2023/07/18 10:02:09;;;;;;;5.90;1.67;;;;;;;24.79;39.98;97651.41;5061617;28;20048;-54
2023/07/18 10:04:36;;;;;;;5.63;1.75;;;;;;;24.55;41.20;97642.66;5060432;28;20054;-57
2023/07/18 10:07:03;;;;;;;3.53;1.50;;;;;;;24.35;41.63;97633.22;5060633;28;20033;-56
2023/07/18 10:09:32;;;;;;;5.03;1.60;;;;;;;24.46;41.92;97624.53;5060984;28;20068;-57
2023/07/18 10:11:58;;;;;;;5.75;1.70;;;;;;;24.39;41.84;97611.22;5059748;28;20044;-58
2023/07/18 10:14:29;;;;;;;4.95;1.80;;;;;;;24.21;41.34;97572.63;5063543;28;20098;-58
2023/07/18 10:17:05;;;;;;;9.15;2.22;;;;;;;24.26;41.43;97542.00;5061078;28;20496;-57
2023/07/18 10:20:10;;;;;;;5.32;1.70;;;;;;;24.15;40.45;97565.69;5060168;28;20055;-57
2023/07/18 10:22:36;;;;;;;6.10;1.98;;;;;;;24.21;40.62;97525.59;5043020;28;20060;-58
2023/07/18 10:25:07;;;;;;;5.93;1.95;;;;;;;24.32;40.83;97445.75;5056994;28;20064;-58
2023/07/18 10:27:36;;;;;;;4.57;1.95;;;;;;;24.33;41.68;97360.81;5055231;28;20051;-57
2023/07/18 10:30:07;;;;;;;6.47;1.77;;;;;;;24.13;42.60;97321.81;5056596;28;20045;-58
2023/07/18 10:32:37;;;;;;;6.13;1.90;;;;;;;23.94;42.85;97303.78;5054636;28;20041;-57
2023/07/18 10:35:13;;;;;;;5.25;1.92;;;;;;;23.94;42.36;97302.94;5055356;28;20045;-57
2023/07/18 10:37:44;;;;;;;4.28;1.67;;;;;;;24.16;42.28;97329.41;5055545;28;20049;-58
2023/07/18 10:40:29;;;;;;;;;;;;;;;24.32;42.08;97364.72;5058420;28;20045;-58
2023/07/18 10:42:55;;;;;;;6.35;1.92;;;;;;;24.54;41.86;97403.03;5058989;28;19924;-58
2023/07/18 10:45:22;;;;;;;8.63;2.05;;;;;;;24.76;41.40;97427.84;5058831;28;20044;-58
2023/07/18 10:47:48;;;;;;;4.97;1.60;;;;;;;24.88;41.12;97450.03;5058135;28;20500;-57
2023/07/18 10:50:15;;;;;;;5.47;1.80;;;;;;;24.94;40.47;97470.00;5058137;28;20127;-55
2023/07/18 10:52:45;;;;;;;4.40;1.75;;;;;;;25.14;39.98;97497.94;5057874;28;20071;-58
2023/07/18 10:55:13;;;;;;;5.78;2.10;;;;;;;25.46;39.58;97528.63;5061383;28;20052;-57
2023/07/18 10:57:39;;;;;;;4.68;1.80;;;;;;;25.56;38.56;97561.47;5059867;28;20056;-55
2023/07/18 11:00:06;;;;;;;5.03;1.80;;;;;;;25.81;38.58;97594.72;5060458;28;20594;-55
2023/07/18 11:02:42;;;;;;;5.90;2.05;;;;;;;25.69;38.19;97594.75;5057387;28;20750;-56
2023/07/18 11:05:12;;;;;;;6.70;1.95;;;;;;;25.31;39.05;97599.41;5060754;28;20040;-56
2023/07/18 11:07:44;;;;;;;5.00;1.90;;;;;;;24.85;40.01;97586.41;5060001;28;20044;-55
2023/07/18 11:10:12;;;;;;;4.57;1.65;;;;;;;24.92;40.06;97583.09;5059252;28;20049;-55
2023/07/18 11:12:40;;;;;;;6.38;2.00;;;;;;;24.83;41.04;97560.97;5059264;28;20055;-55
2023/07/18 11:15:09;;;;;;;5.50;1.80;;;;;;;24.42;43.80;97558.78;5056470;28;20138;-55
2023/07/18 11:17:38;;;;;;;5.15;1.90;;;;;;;24.21;42.79;97558.78;5062750;28;20090;-60
2023/07/18 11:20:06;;;;;;;7.88;2.30;;;;;;;24.09;42.85;97580.81;5061852;28;20407;-61
2023/07/18 11:22:33;;;;;;;4.10;1.60;;;;;;;24.25;43.14;97579.09;5061970;28;20068;-57
2023/07/18 11:25:00;;;;;;;5.63;1.90;;;;;;;24.30;42.64;97578.09;5063464;28;20040;-57
2023/07/18 11:27:31;;;;;;;7.25;1.88;;;;;;;24.31;43.56;97568.63;5061923;28;20075;-56
2023/07/18 11:30:00;;;;;;;5.93;1.77;;;;;;;24.04;43.50;97566.03;5060085;28;20158;-60
2023/07/18 11:32:35;;;;;;;7.43;1.92;;;;;;;23.99;43.82;97570.97;5058951;28;20137;-53
2023/07/18 11:35:01;;;;;;;6.57;2.17;;;;;;;24.08;48.06;97549.59;5054731;28;20104;-57
2023/07/18 11:37:28;;;;;;;4.65;1.92;;;;;;;24.13;46.19;97532.00;5060649;28;20044;-54